sensor_id;sensor_type;location;lat;lon;timestamp;temperature;humidity
77582;DHT22;66726;52.388;9.986;2024-03-23T00:54:47;8.40;99.90
77582;DHT22;66726;52.388;9.986;2024-03-23T00:57:14;8.40;99.90
77582;DHT22;66726;52.388;9.986;2024-03-23T00:59:41;8.50;99.90
77582;DHT22;66726;52.388;9.986;2024-03-23T01:02:07;8.50;99.90
77582;DHT22;66726;52.388;9.986;2024-03-23T01:04:34;8.50;99.90
77582;DHT22;66726;52.388;9.986;2024-03-23T01:07:00;8.50;99.90
77582;DHT22;66726;52.388;9.986;2024-03-23T01:09:29;8.50;99.90
77582;DHT22;66726;52.388;9.986;2024-03-23T01:12:01;8.40;99.90
77582;DHT22;66726;52.388;9.986;2024-03-23T01:14:28;8.40;99.90
77582;DHT22;66726;52.388;9.986;2024-03-23T01:16:54;8.40;99.90
77582;DHT22;66726;52.388;9.986;2024-03-23T01:19:21;8.30;99.90
77582;DHT22;66726;52.388;9.986;2024-03-23T01:21:48;8.40;99.90
77582;DHT22;66726;52.388;9.986;2024-03-23T01:24:16;8.30;99.90
77582;DHT22;66726;52.388;9.986;2024-03-23T01:26:43;8.20;99.90
77582;DHT22;66726;52.388;9.986;2024-03-23T01:29:10;8.30;99.90
77582;DHT22;66726;52.388;9.986;2024-03-23T01:31:37;8.30;99.90
77582;DHT22;66726;52.388;9.986;2024-03-23T01:34:04;8.20;99.90
77582;DHT22;66726;52.388;9.986;2024-03-23T01:36:30;8.10;99.90
77582;DHT22;66726;52.388;9.986;2024-03-23T01:38:57;8.10;99.90
77582;DHT22;66726;52.388;9.986;2024-03-23T01:41:24;8.20;99.90
77582;DHT22;66726;52.388;9.986;2024-03-23T01:43:53;8.20;99.90
77582;DHT22;66726;52.388;9.986;2024-03-23T01:46:21;8.10;99.90
77582;DHT22;66726;52.388;9.986;2024-03-23T01:48:49;8.00;99.90
77582;DHT22;66726;52.388;9.986;2024-03-23T01:51:16;8.00;99.90
77582;DHT22;66726;52.388;9.986;2024-03-23T01:53:44;8.00;99.90
77582;DHT22;66726;52.388;9.986;2024-03-23T01:56:10;8.00;99.90
77582;DHT22;66726;52.388;9.986;2024-03-23T01:58:39;8.00;99.90
77582;DHT22;66726;52.388;9.986;2024-03-23T02:01:06;8.00;99.90
77582;DHT22;66726;52.388;9.986;2024-03-23T02:03:33;8.00;99.90
77582;DHT22;66726;52.388;9.986;2024-03-23T02:06:00;8.00;99.90
77582;DHT22;66726;52.388;9.986;2024-03-23T02:08:27;8.00;99.90
77582;DHT22;66726;52.388;9.986;2024-03-23T02:10:54;8.00;99.90
77582;DHT22;66726;52.388;9.986;2024-03-23T02:13:21;7.90;99.90
77582;DHT22;66726;52.388;9.986;2024-03-23T02:15:47;7.90;99.90
77582;DHT22;66726;52.388;9.986;2024-03-23T02:18:16;8.00;99.90
77582;DHT22;66726;52.388;9.986;2024-03-23T02:20:42;8.00;99.90
77582;DHT22;66726;52.388;9.986;2024-03-23T02:23:15;8.00;99.90
77582;DHT22;66726;52.388;9.986;2024-03-23T02:25:41;8.00;99.90
77582;DHT22;66726;52.388;9.986;2024-03-23T02:28:09;7.90;99.90
77582;DHT22;66726;52.388;9.986;2024-03-23T02:30:35;8.00;99.90
77582;DHT22;66726;52.388;9.986;2024-03-23T02:33:03;8.00;99.90
77582;DHT22;66726;52.388;9.986;2024-03-23T02:35:29;8.00;99.90
77582;DHT22;66726;52.388;9.986;2024-03-23T02:37:57;7.90;99.90
77582;DHT22;66726;52.388;9.986;2024-03-23T02:40:24;8.00;99.90
77582;DHT22;66726;52.388;9.986;2024-03-23T02:42:52;7.90;99.90
77582;DHT22;66726;52.388;9.986;2024-03-23T02:45:18;7.90;99.90
77582;DHT22;66726;52.388;9.986;2024-03-23T02:47:46;8.00;99.90
77582;DHT22;66726;52.388;9.986;2024-03-23T02:50:12;8.00;99.90
77582;DHT22;66726;52.388;9.986;2024-03-23T02:52:41;8.00;99.90
77582;DHT22;66726;52.388;9.986;2024-03-23T02:55:07;7.90;99.90
77582;DHT22;66726;52.388;9.986;2024-03-23T02:57:36;7.90;99.90
77582;DHT22;66726;52.388;9.986;2024-03-23T03:00:03;7.90;99.90
77582;DHT22;66726;52.388;9.986;2024-03-23T03:02:32;7.90;99.90
77582;DHT22;66726;52.388;9.986;2024-03-23T03:04:58;7.90;99.90
77582;DHT22;66726;52.388;9.986;2024-03-23T03:07:25;7.80;99.90
77582;DHT22;66726;52.388;9.986;2024-03-23T03:09:51;7.80;99.90
77582;DHT22;66726;52.388;9.986;2024-03-23T03:12:19;7.70;99.90
77582;DHT22;66726;52.388;9.986;2024-03-23T03:14:46;7.80;99.90
77582;DHT22;66726;52.388;9.986;2024-03-23T03:17:14;7.80;99.90
77582;DHT22;66726;52.388;9.986;2024-03-23T03:19:40;7.70;99.90
77582;DHT22;66726;52.388;9.986;2024-03-23T03:22:07;7.70;99.90
77582;DHT22;66726;52.388;9.986;2024-03-23T03:24:34;7.70;99.90
77582;DHT22;66726;52.388;9.986;2024-03-23T03:27:01;7.60;99.90
77582;DHT22;66726;52.388;9.986;2024-03-23T03:29:29;7.60;99.90
77582;DHT22;66726;52.388;9.986;2024-03-23T03:32:03;7.60;99.90
77582;DHT22;66726;52.388;9.986;2024-03-23T03:34:29;7.70;99.90
77582;DHT22;66726;52.388;9.986;2024-03-23T03:36:57;7.60;99.90
77582;DHT22;66726;52.388;9.986;2024-03-23T03:39:24;7.60;99.90
77582;DHT22;66726;52.388;9.986;2024-03-23T03:41:51;7.60;99.90
77582;DHT22;66726;52.388;9.986;2024-03-23T03:44:18;7.60;99.90
77582;DHT22;66726;52.388;9.986;2024-03-23T03:46:45;7.60;99.90
77582;DHT22;66726;52.388;9.986;2024-03-23T03:49:14;7.60;99.90
77582;DHT22;66726;52.388;9.986;2024-03-23T03:51:41;7.60;99.90
77582;DHT22;66726;52.388;9.986;2024-03-23T03:54:07;7.60;99.90
77582;DHT22;66726;52.388;9.986;2024-03-23T03:56:34;7.60;99.90
77582;DHT22;66726;52.388;9.986;2024-03-23T03:59:00;7.50;99.90
77582;DHT22;66726;52.388;9.986;2024-03-23T04:01:28;7.60;99.90
77582;DHT22;66726;52.388;9.986;2024-03-23T04:03:54;7.60;99.90
77582;DHT22;66726;52.388;9.986;2024-03-23T04:06:22;7.50;99.90
77582;DHT22;66726;52.388;9.986;2024-03-23T04:08:49;7.50;99.90
77582;DHT22;66726;52.388;9.986;2024-03-23T04:11:16;7.50;99.90
77582;DHT22;66726;52.388;9.986;2024-03-23T04:13:43;7.40;99.90
77582;DHT22;66726;52.388;9.986;2024-03-23T04:16:10;7.30;99.90
77582;DHT22;66726;52.388;9.986;2024-03-23T04:18:36;7.30;99.90
77582;DHT22;66726;52.388;9.986;2024-03-23T04:21:04;7.30;99.90
77582;DHT22;66726;52.388;9.986;2024-03-23T04:23:31;7.30;99.90
77582;DHT22;66726;52.388;9.986;2024-03-23T04:26:03;7.40;99.90
77582;DHT22;66726;52.388;9.986;2024-03-23T04:28:30;7.40;99.90
77582;DHT22;66726;52.388;9.986;2024-03-23T04:30:58;7.40;99.90
77582;DHT22;66726;52.388;9.986;2024-03-23T04:33:28;7.50;99.90
77582;DHT22;66726;52.388;9.986;2024-03-23T04:35:56;7.50;99.90
77582;DHT22;66726;52.388;9.986;2024-03-23T04:38:22;7.50;99.90
77582;DHT22;66726;52.388;9.986;2024-03-23T04:40:55;7.40;99.90
77582;DHT22;66726;52.388;9.986;2024-03-23T04:43:22;7.40;99.90
77582;DHT22;66726;52.388;9.986;2024-03-23T04:45:50;7.40;99.90
77582;DHT22;66726;52.388;9.986;2024-03-23T04:48:20;7.30;99.90
77582;DHT22;66726;52.388;9.986;2024-03-23T04:50:48;7.30;99.90
77582;DHT22;66726;52.388;9.986;2024-03-23T04:53:16;7.40;99.90
77582;DHT22;66726;52.388;9.986;2024-03-23T04:55:43;7.40;99.90
77582;DHT22;66726;52.388;9.986;2024-03-23T04:58:12;7.30;99.90
77582;DHT22;66726;52.388;9.986;2024-03-23T05:00:38;7.30;99.90
77582;DHT22;66726;52.388;9.986;2024-03-23T05:03:05;7.20;99.90
77582;DHT22;66726;52.388;9.986;2024-03-23T05:05:32;7.30;99.90
77582;DHT22;66726;52.388;9.986;2024-03-23T05:07:59;7.30;99.90
77582;DHT22;66726;52.388;9.986;2024-03-23T05:10:25;7.40;99.90
77582;DHT22;66726;52.388;9.986;2024-03-23T05:12:53;7.30;99.90
77582;DHT22;66726;52.388;9.986;2024-03-23T05:15:20;7.40;99.90
77582;DHT22;66726;52.388;9.986;2024-03-23T05:17:48;7.30;99.90
77582;DHT22;66726;52.388;9.986;2024-03-23T05:20:14;7.20;99.90
77582;DHT22;66726;52.388;9.986;2024-03-23T05:22:42;7.20;99.90
77582;DHT22;66726;52.388;9.986;2024-03-23T05:25:08;7.10;99.90
77582;DHT22;66726;52.388;9.986;2024-03-23T05:27:35;7.10;99.90
77582;DHT22;66726;52.388;9.986;2024-03-23T05:30:02;7.00;99.90
77582;DHT22;66726;52.388;9.986;2024-03-23T05:32:31;7.00;99.90
77582;DHT22;66726;52.388;9.986;2024-03-23T05:34:57;7.00;99.90
77582;DHT22;66726;52.388;9.986;2024-03-23T05:37:25;7.00;99.90
77582;DHT22;66726;52.388;9.986;2024-03-23T05:39:51;7.00;99.90
77582;DHT22;66726;52.388;9.986;2024-03-23T05:42:19;7.00;99.90
77582;DHT22;66726;52.388;9.986;2024-03-23T05:44:45;7.00;99.90
77582;DHT22;66726;52.388;9.986;2024-03-23T05:47:13;7.00;99.90
77582;DHT22;66726;52.388;9.986;2024-03-23T05:49:42;6.90;99.90
77582;DHT22;66726;52.388;9.986;2024-03-23T05:52:09;6.90;99.90
77582;DHT22;66726;52.388;9.986;2024-03-23T05:54:35;6.90;99.90
77582;DHT22;66726;52.388;9.986;2024-03-23T05:57:03;6.80;99.90
77582;DHT22;66726;52.388;9.986;2024-03-23T05:59:30;6.90;99.90
77582;DHT22;66726;52.388;9.986;2024-03-23T06:01:57;6.90;99.90
77582;DHT22;66726;52.388;9.986;2024-03-23T06:04:23;7.00;99.90
77582;DHT22;66726;52.388;9.986;2024-03-23T06:06:52;7.00;99.90
77582;DHT22;66726;52.388;9.986;2024-03-23T06:09:18;7.00;99.90
77582;DHT22;66726;52.388;9.986;2024-03-23T06:11:46;7.00;99.90
77582;DHT22;66726;52.388;9.986;2024-03-23T06:14:12;7.00;99.90
77582;DHT22;66726;52.388;9.986;2024-03-23T06:16:39;6.90;99.90
77582;DHT22;66726;52.388;9.986;2024-03-23T06:19:06;7.00;99.90
77582;DHT22;66726;52.388;9.986;2024-03-23T06:21:33;7.00;99.90
77582;DHT22;66726;52.388;9.986;2024-03-23T06:24:00;7.00;99.90
77582;DHT22;66726;52.388;9.986;2024-03-23T06:26:28;7.10;99.90
77582;DHT22;66726;52.388;9.986;2024-03-23T06:28:54;7.00;99.90
77582;DHT22;66726;52.388;9.986;2024-03-23T06:31:21;7.00;99.90
77582;DHT22;66726;52.388;9.986;2024-03-23T06:33:48;6.90;99.90
77582;DHT22;66726;52.388;9.986;2024-03-23T06:36:15;6.90;99.90
77582;DHT22;66726;52.388;9.986;2024-03-23T06:38:41;6.90;99.90
77582;DHT22;66726;52.388;9.986;2024-03-23T06:41:10;6.90;99.90
77582;DHT22;66726;52.388;9.986;2024-03-23T06:43:37;6.90;99.90
77582;DHT22;66726;52.388;9.986;2024-03-23T06:46:05;7.00;99.90
77582;DHT22;66726;52.388;9.986;2024-03-23T06:48:31;6.90;99.90
77582;DHT22;66726;52.388;9.986;2024-03-23T06:50:59;6.90;99.90
77582;DHT22;66726;52.388;9.986;2024-03-23T06:53:25;6.90;99.90
77582;DHT22;66726;52.388;9.986;2024-03-23T06:55:53;6.90;99.90
77582;DHT22;66726;52.388;9.986;2024-03-23T06:58:22;6.90;99.90
77582;DHT22;66726;52.388;9.986;2024-03-23T07:00:51;6.90;99.90
77582;DHT22;66726;52.388;9.986;2024-03-23T07:03:17;6.90;99.90
77582;DHT22;66726;52.388;9.986;2024-03-23T07:05:44;6.90;99.90
77582;DHT22;66726;52.388;9.986;2024-03-23T07:08:12;6.90;99.90
77582;DHT22;66726;52.388;9.986;2024-03-23T07:10:44;6.90;99.90
77582;DHT22;66726;52.388;9.986;2024-03-23T07:13:10;6.80;99.90
77582;DHT22;66726;52.388;9.986;2024-03-23T07:15:39;6.90;99.90
77582;DHT22;66726;52.388;9.986;2024-03-23T07:18:05;6.90;99.90
77582;DHT22;66726;52.388;9.986;2024-03-23T07:20:33;6.90;99.90
77582;DHT22;66726;52.388;9.986;2024-03-23T07:22:59;6.90;99.90
77582;DHT22;66726;52.388;9.986;2024-03-23T07:25:26;6.90;99.90
77582;DHT22;66726;52.388;9.986;2024-03-23T07:27:54;6.80;99.90
77582;DHT22;66726;52.388;9.986;2024-03-23T07:30:22;6.80;99.90
77582;DHT22;66726;52.388;9.986;2024-03-23T07:32:49;6.80;99.90
77582;DHT22;66726;52.388;9.986;2024-03-23T07:35:16;6.90;99.90
77582;DHT22;66726;52.388;9.986;2024-03-23T07:37:43;6.90;99.90
77582;DHT22;66726;52.388;9.986;2024-03-23T07:40:11;6.90;99.90
77582;DHT22;66726;52.388;9.986;2024-03-23T07:42:37;6.90;99.90
77582;DHT22;66726;52.388;9.986;2024-03-23T07:45:05;6.90;99.90
77582;DHT22;66726;52.388;9.986;2024-03-23T07:47:32;6.90;99.90
77582;DHT22;66726;52.388;9.986;2024-03-23T07:50:01;6.90;99.90
77582;DHT22;66726;52.388;9.986;2024-03-23T07:52:28;6.90;99.90
77582;DHT22;66726;52.388;9.986;2024-03-23T07:54:55;7.00;99.90
77582;DHT22;66726;52.388;9.986;2024-03-23T07:57:22;7.00;99.90
77582;DHT22;66726;52.388;9.986;2024-03-23T07:59:49;7.10;99.90
77582;DHT22;66726;52.388;9.986;2024-03-23T08:02:15;7.10;99.90
77582;DHT22;66726;52.388;9.986;2024-03-23T08:04:42;7.10;99.90
77582;DHT22;66726;52.388;9.986;2024-03-23T08:07:11;7.20;99.90
77582;DHT22;66726;52.388;9.986;2024-03-23T08:09:37;7.20;99.90
77582;DHT22;66726;52.388;9.986;2024-03-23T08:12:05;7.10;99.90
77582;DHT22;66726;52.388;9.986;2024-03-23T08:14:31;7.20;99.90
77582;DHT22;66726;52.388;9.986;2024-03-23T08:16:58;7.20;99.90
77582;DHT22;66726;52.388;9.986;2024-03-23T08:19:25;7.20;99.90
77582;DHT22;66726;52.388;9.986;2024-03-23T08:21:52;7.20;99.90
77582;DHT22;66726;52.388;9.986;2024-03-23T08:24:21;7.20;99.90
77582;DHT22;66726;52.388;9.986;2024-03-23T08:26:48;7.20;99.90
77582;DHT22;66726;52.388;9.986;2024-03-23T08:29:15;7.20;99.90
77582;DHT22;66726;52.388;9.986;2024-03-23T08:31:42;7.20;99.90
77582;DHT22;66726;52.388;9.986;2024-03-23T08:34:08;7.20;99.90
77582;DHT22;66726;52.388;9.986;2024-03-23T08:36:35;7.20;99.90
77582;DHT22;66726;52.388;9.986;2024-03-23T08:39:01;7.20;99.90
77582;DHT22;66726;52.388;9.986;2024-03-23T08:41:30;7.20;99.90
77582;DHT22;66726;52.388;9.986;2024-03-23T08:43:56;7.20;99.90
77582;DHT22;66726;52.388;9.986;2024-03-23T08:46:23;7.20;99.90
77582;DHT22;66726;52.388;9.986;2024-03-23T08:48:50;7.30;99.90
77582;DHT22;66726;52.388;9.986;2024-03-23T08:51:18;7.40;99.90
77582;DHT22;66726;52.388;9.986;2024-03-23T08:53:45;7.60;99.90
77582;DHT22;66726;52.388;9.986;2024-03-23T08:56:12;7.70;99.90
77582;DHT22;66726;52.388;9.986;2024-03-23T08:58:40;7.80;99.90
77582;DHT22;66726;52.388;9.986;2024-03-23T09:01:08;7.70;99.90
77582;DHT22;66726;52.388;9.986;2024-03-23T09:03:36;7.70;99.90
77582;DHT22;66726;52.388;9.986;2024-03-23T09:06:06;7.70;99.90
77582;DHT22;66726;52.388;9.986;2024-03-23T09:08:34;7.80;99.90
77582;DHT22;66726;52.388;9.986;2024-03-23T09:11:04;7.90;99.90
77582;DHT22;66726;52.388;9.986;2024-03-23T09:14:25;7.90;99.90
77582;DHT22;66726;52.388;9.986;2024-03-23T09:16:53;8.00;99.90
77582;DHT22;66726;52.388;9.986;2024-03-23T09:21:13;8.20;99.90
77582;DHT22;66726;52.388;9.986;2024-03-23T09:23:43;8.20;99.90
77582;DHT22;66726;52.388;9.986;2024-03-23T09:26:09;8.30;99.90
77582;DHT22;66726;52.388;9.986;2024-03-23T09:28:36;8.20;99.90
77582;DHT22;66726;52.388;9.986;2024-03-23T09:31:03;8.10;99.90
77582;DHT22;66726;52.388;9.986;2024-03-23T09:33:30;8.10;99.90
77582;DHT22;66726;52.388;9.986;2024-03-23T09:36:56;7.90;99.90
77582;DHT22;66726;52.388;9.986;2024-03-23T09:39:24;7.80;99.90
77582;DHT22;66726;52.388;9.986;2024-03-23T09:41:50;7.80;99.90
77582;DHT22;66726;52.388;9.986;2024-03-23T09:44:17;7.80;99.90
77582;DHT22;66726;52.388;9.986;2024-03-23T09:46:45;7.80;99.90
77582;DHT22;66726;52.388;9.986;2024-03-23T09:49:11;8.00;99.90
77582;DHT22;66726;52.388;9.986;2024-03-23T09:51:38;8.10;99.90
77582;DHT22;66726;52.388;9.986;2024-03-23T09:54:06;8.40;99.90
77582;DHT22;66726;52.388;9.986;2024-03-23T09:56:34;8.50;99.90
77582;DHT22;66726;52.388;9.986;2024-03-23T09:59:01;8.50;99.90
77582;DHT22;66726;52.388;9.986;2024-03-23T10:01:30;8.40;99.90
77582;DHT22;66726;52.388;9.986;2024-03-23T10:03:56;8.10;99.90
77582;DHT22;66726;52.388;9.986;2024-03-23T10:06:23;8.00;99.90
77582;DHT22;66726;52.388;9.986;2024-03-23T10:08:51;7.80;99.90
77582;DHT22;66726;52.388;9.986;2024-03-23T10:11:21;7.60;99.90
77582;DHT22;66726;52.388;9.986;2024-03-23T10:13:47;7.50;99.90
77582;DHT22;66726;52.388;9.986;2024-03-23T10:16:21;7.50;99.90
77582;DHT22;66726;52.388;9.986;2024-03-23T10:18:49;7.70;99.90
77582;DHT22;66726;52.388;9.986;2024-03-23T10:21:18;8.00;99.90
77582;DHT22;66726;52.388;9.986;2024-03-23T10:23:44;8.30;99.90
77582;DHT22;66726;52.388;9.986;2024-03-23T10:26:20;8.50;99.90
77582;DHT22;66726;52.388;9.986;2024-03-23T10:28:55;8.50;99.90
77582;DHT22;66726;52.388;9.986;2024-03-23T10:31:26;8.50;99.90
77582;DHT22;66726;52.388;9.986;2024-03-23T10:33:53;8.40;99.90
77582;DHT22;66726;52.388;9.986;2024-03-23T10:36:22;8.50;99.90
77582;DHT22;66726;52.388;9.986;2024-03-23T10:38:50;8.70;99.90
77582;DHT22;66726;52.388;9.986;2024-03-23T10:41:18;9.00;99.90
77582;DHT22;66726;52.388;9.986;2024-03-23T10:43:47;9.20;99.90
77582;DHT22;66726;52.388;9.986;2024-03-23T10:46:15;9.20;99.90
77582;DHT22;66726;52.388;9.986;2024-03-23T10:48:43;9.30;99.90
77582;DHT22;66726;52.388;9.986;2024-03-23T10:51:11;9.50;99.90
77582;DHT22;66726;52.388;9.986;2024-03-23T10:53:40;9.50;99.90
77582;DHT22;66726;52.388;9.986;2024-03-23T10:56:08;9.80;99.90
77582;DHT22;66726;52.388;9.986;2024-03-23T10:58:39;9.70;99.90
77582;DHT22;66726;52.388;9.986;2024-03-23T11:01:12;9.70;99.90
77582;DHT22;66726;52.388;9.986;2024-03-23T11:03:40;9.50;99.90
77582;DHT22;66726;52.388;9.986;2024-03-23T11:06:37;9.40;99.90
77582;DHT22;66726;52.388;9.986;2024-03-23T11:09:38;9.10;99.90
77582;DHT22;66726;52.388;9.986;2024-03-23T11:12:26;8.50;99.90
77582;DHT22;66726;52.388;9.986;2024-03-23T11:14:54;8.10;99.90
77582;DHT22;66726;52.388;9.986;2024-03-23T11:17:25;7.60;99.90
77582;DHT22;66726;52.388;9.986;2024-03-23T11:19:57;7.50;99.90
77582;DHT22;66726;52.388;9.986;2024-03-23T11:22:46;7.40;99.90
77582;DHT22;66726;52.388;9.986;2024-03-23T11:25:15;7.50;99.90
77582;DHT22;66726;52.388;9.986;2024-03-23T11:27:44;7.60;99.90
77582;DHT22;66726;52.388;9.986;2024-03-23T11:30:16;7.60;99.90
77582;DHT22;66726;52.388;9.986;2024-03-23T11:32:45;7.70;99.90
77582;DHT22;66726;52.388;9.986;2024-03-23T11:35:26;7.90;99.90
77582;DHT22;66726;52.388;9.986;2024-03-23T11:38:08;8.30;99.90
77582;DHT22;66726;52.388;9.986;2024-03-23T11:40:38;8.30;99.90
77582;DHT22;66726;52.388;9.986;2024-03-23T11:43:05;8.20;99.90
77582;DHT22;66726;52.388;9.986;2024-03-23T11:45:35;8.00;99.90
77582;DHT22;66726;52.388;9.986;2024-03-23T11:48:07;7.90;99.90
77582;DHT22;66726;52.388;9.986;2024-03-23T11:50:40;7.90;99.90
77582;DHT22;66726;52.388;9.986;2024-03-23T11:53:13;7.80;99.90
77582;DHT22;66726;52.388;9.986;2024-03-23T11:55:46;7.90;99.90
77582;DHT22;66726;52.388;9.986;2024-03-23T11:58:15;8.00;99.90
77582;DHT22;66726;52.388;9.986;2024-03-23T12:00:49;8.20;99.90
77582;DHT22;66726;52.388;9.986;2024-03-23T12:03:17;8.20;99.90
77582;DHT22;66726;52.388;9.986;2024-03-23T12:05:48;8.30;99.90
77582;DHT22;66726;52.388;9.986;2024-03-23T12:08:18;8.30;99.90
77582;DHT22;66726;52.388;9.986;2024-03-23T12:10:51;8.10;99.90
77582;DHT22;66726;52.388;9.986;2024-03-23T12:13:19;7.90;99.90
77582;DHT22;66726;52.388;9.986;2024-03-23T12:15:50;7.70;99.90
77582;DHT22;66726;52.388;9.986;2024-03-23T12:18:16;7.80;99.90
77582;DHT22;66726;52.388;9.986;2024-03-23T12:20:44;8.00;99.90
77582;DHT22;66726;52.388;9.986;2024-03-23T12:23:12;8.00;99.90
77582;DHT22;66726;52.388;9.986;2024-03-23T12:25:41;8.00;99.90
77582;DHT22;66726;52.388;9.986;2024-03-23T12:28:07;8.00;99.90
77582;DHT22;66726;52.388;9.986;2024-03-23T12:30:36;7.90;99.90
77582;DHT22;66726;52.388;9.986;2024-03-23T12:33:05;7.90;99.90
77582;DHT22;66726;52.388;9.986;2024-03-23T12:35:32;7.70;99.90
77582;DHT22;66726;52.388;9.986;2024-03-23T12:37:59;7.80;99.90
77582;DHT22;66726;52.388;9.986;2024-03-23T12:40:27;7.90;99.90
77582;DHT22;66726;52.388;9.986;2024-03-23T12:42:55;7.90;99.90
77582;DHT22;66726;52.388;9.986;2024-03-23T12:45:23;8.10;99.90
77582;DHT22;66726;52.388;9.986;2024-03-23T12:47:49;8.40;99.90
77582;DHT22;66726;52.388;9.986;2024-03-23T12:50:18;8.50;99.90
77582;DHT22;66726;52.388;9.986;2024-03-23T12:52:44;8.70;99.90
77582;DHT22;66726;52.388;9.986;2024-03-23T12:55:11;8.70;99.90
77582;DHT22;66726;52.388;9.986;2024-03-23T12:57:38;8.50;99.90
77582;DHT22;66726;52.388;9.986;2024-03-23T13:00:08;8.50;99.90
77582;DHT22;66726;52.388;9.986;2024-03-23T13:02:37;8.40;99.90
77582;DHT22;66726;52.388;9.986;2024-03-23T13:05:06;8.30;99.90
77582;DHT22;66726;52.388;9.986;2024-03-23T13:07:33;8.10;99.90
77582;DHT22;66726;52.388;9.986;2024-03-23T13:10:03;8.00;99.90
77582;DHT22;66726;52.388;9.986;2024-03-23T13:12:30;8.10;99.90
77582;DHT22;66726;52.388;9.986;2024-03-23T13:14:58;8.10;99.90
77582;DHT22;66726;52.388;9.986;2024-03-23T13:17:26;8.10;99.90
77582;DHT22;66726;52.388;9.986;2024-03-23T13:19:54;8.20;99.90
77582;DHT22;66726;52.388;9.986;2024-03-23T13:22:21;8.20;99.90
77582;DHT22;66726;52.388;9.986;2024-03-23T13:24:48;8.20;99.90
77582;DHT22;66726;52.388;9.986;2024-03-23T13:27:14;8.20;99.90
77582;DHT22;66726;52.388;9.986;2024-03-23T13:29:42;8.10;99.90
77582;DHT22;66726;52.388;9.986;2024-03-23T13:32:08;8.20;99.90
77582;DHT22;66726;52.388;9.986;2024-03-23T13:34:37;8.50;99.90
77582;DHT22;66726;52.388;9.986;2024-03-23T13:37:03;8.90;99.90
77582;DHT22;66726;52.388;9.986;2024-03-23T13:39:33;9.10;99.90
77582;DHT22;66726;52.388;9.986;2024-03-23T13:41:59;9.20;99.90
77582;DHT22;66726;52.388;9.986;2024-03-23T13:44:26;9.50;99.90
77582;DHT22;66726;52.388;9.986;2024-03-23T13:46:53;9.60;99.90
77582;DHT22;66726;52.388;9.986;2024-03-23T13:49:27;9.60;99.90
77582;DHT22;66726;52.388;9.986;2024-03-23T13:51:57;9.70;99.90
77582;DHT22;66726;52.388;9.986;2024-03-23T13:54:24;9.70;99.90
77582;DHT22;66726;52.388;9.986;2024-03-23T13:56:52;10.00;99.90
77582;DHT22;66726;52.388;9.986;2024-03-23T13:59:20;10.00;99.90
77582;DHT22;66726;52.388;9.986;2024-03-23T14:01:49;10.10;99.90
77582;DHT22;66726;52.388;9.986;2024-03-23T14:04:15;10.20;99.90
77582;DHT22;66726;52.388;9.986;2024-03-23T14:06:45;10.10;99.90
77582;DHT22;66726;52.388;9.986;2024-03-23T14:09:13;10.10;99.90
77582;DHT22;66726;52.388;9.986;2024-03-23T14:11:46;10.30;99.90
77582;DHT22;66726;52.388;9.986;2024-03-23T14:14:12;10.40;99.90
77582;DHT22;66726;52.388;9.986;2024-03-23T14:16:42;10.50;99.90
77582;DHT22;66726;52.388;9.986;2024-03-23T14:19:08;10.40;99.90
77582;DHT22;66726;52.388;9.986;2024-03-23T14:21:36;10.00;99.90
77582;DHT22;66726;52.388;9.986;2024-03-23T14:24:03;9.80;99.90
77582;DHT22;66726;52.388;9.986;2024-03-23T14:26:32;9.60;99.90
77582;DHT22;66726;52.388;9.986;2024-03-23T14:28:59;9.60;99.90
77582;DHT22;66726;52.388;9.986;2024-03-23T14:31:26;9.50;99.90
77582;DHT22;66726;52.388;9.986;2024-03-23T14:33:52;9.50;99.90
77582;DHT22;66726;52.388;9.986;2024-03-23T14:36:19;9.40;99.90
77582;DHT22;66726;52.388;9.986;2024-03-23T14:38:47;9.30;99.90
77582;DHT22;66726;52.388;9.986;2024-03-23T14:41:14;9.30;99.90
77582;DHT22;66726;52.388;9.986;2024-03-23T14:43:42;9.30;99.90
77582;DHT22;66726;52.388;9.986;2024-03-23T14:46:13;9.20;99.90
77582;DHT22;66726;52.388;9.986;2024-03-23T14:48:41;9.10;99.90
77582;DHT22;66726;52.388;9.986;2024-03-23T14:51:09;9.10;99.90
77582;DHT22;66726;52.388;9.986;2024-03-23T14:53:36;9.20;99.90
77582;DHT22;66726;52.388;9.986;2024-03-23T14:56:06;9.30;99.90
77582;DHT22;66726;52.388;9.986;2024-03-23T14:58:33;9.40;99.90
77582;DHT22;66726;52.388;9.986;2024-03-23T15:01:03;9.10;99.90
77582;DHT22;66726;52.388;9.986;2024-03-23T15:03:30;8.80;99.90
77582;DHT22;66726;52.388;9.986;2024-03-23T15:05:59;8.80;99.90
77582;DHT22;66726;52.388;9.986;2024-03-23T15:08:26;8.50;99.90
77582;DHT22;66726;52.388;9.986;2024-03-23T15:10:55;8.30;99.90
77582;DHT22;66726;52.388;9.986;2024-03-23T15:13:24;8.40;99.90
77582;DHT22;66726;52.388;9.986;2024-03-23T15:15:52;8.40;99.90
77582;DHT22;66726;52.388;9.986;2024-03-23T15:18:20;8.40;99.90
77582;DHT22;66726;52.388;9.986;2024-03-23T15:20:54;8.40;99.90
77582;DHT22;66726;52.388;9.986;2024-03-23T15:23:22;8.80;99.90
77582;DHT22;66726;52.388;9.986;2024-03-23T15:25:54;9.00;99.90
77582;DHT22;66726;52.388;9.986;2024-03-23T15:28:20;9.10;99.90
77582;DHT22;66726;52.388;9.986;2024-03-23T15:30:48;9.30;99.90
77582;DHT22;66726;52.388;9.986;2024-03-23T15:33:14;9.40;99.90
77582;DHT22;66726;52.388;9.986;2024-03-23T15:35:43;9.30;99.90
77582;DHT22;66726;52.388;9.986;2024-03-23T15:38:09;9.40;99.90
77582;DHT22;66726;52.388;9.986;2024-03-23T15:40:36;9.30;99.90
77582;DHT22;66726;52.388;9.986;2024-03-23T15:43:02;9.20;99.90
77582;DHT22;66726;52.388;9.986;2024-03-23T15:45:30;9.10;99.90
77582;DHT22;66726;52.388;9.986;2024-03-23T15:47:56;8.90;99.90
77582;DHT22;66726;52.388;9.986;2024-03-23T15:50:23;8.70;99.90
77582;DHT22;66726;52.388;9.986;2024-03-23T15:52:51;8.60;99.90
77582;DHT22;66726;52.388;9.986;2024-03-23T15:55:18;8.60;99.90
77582;DHT22;66726;52.388;9.986;2024-03-23T15:57:44;8.60;99.90
77582;DHT22;66726;52.388;9.986;2024-03-23T16:00:13;8.60;99.90
77582;DHT22;66726;52.388;9.986;2024-03-23T16:02:39;8.50;99.90
77582;DHT22;66726;52.388;9.986;2024-03-23T16:05:07;8.50;99.90
77582;DHT22;66726;52.388;9.986;2024-03-23T16:07:36;8.40;99.90
77582;DHT22;66726;52.388;9.986;2024-03-23T16:10:07;8.40;99.90
77582;DHT22;66726;52.388;9.986;2024-03-23T16:12:35;8.10;99.90
77582;DHT22;66726;52.388;9.986;2024-03-23T16:15:02;8.00;99.90
77582;DHT22;66726;52.388;9.986;2024-03-23T16:17:32;7.90;99.90
77582;DHT22;66726;52.388;9.986;2024-03-23T16:20:02;7.30;99.90
77582;DHT22;66726;52.388;9.986;2024-03-23T16:22:29;7.30;99.90
77582;DHT22;66726;52.388;9.986;2024-03-23T16:24:56;7.40;99.90
77582;DHT22;66726;52.388;9.986;2024-03-23T16:27:24;7.50;99.90
77582;DHT22;66726;52.388;9.986;2024-03-23T16:29:51;7.60;99.90
77582;DHT22;66726;52.388;9.986;2024-03-23T16:32:17;7.60;99.90
77582;DHT22;66726;52.388;9.986;2024-03-23T16:34:44;7.50;99.90
77582;DHT22;66726;52.388;9.986;2024-03-23T16:37:10;7.40;99.90
77582;DHT22;66726;52.388;9.986;2024-03-23T16:39:38;7.30;99.90
77582;DHT22;66726;52.388;9.986;2024-03-23T16:42:04;7.30;99.90
77582;DHT22;66726;52.388;9.986;2024-03-23T16:44:33;7.10;99.90
77582;DHT22;66726;52.388;9.986;2024-03-23T16:46:59;6.90;99.90